sensor_id;sensor_type;location;lat;lon;timestamp;temperature;humidity
9223;DHT22;7557;51.698;3.942;2023-12-04T00:01:15;4.20;99.90
9223;DHT22;7557;51.698;3.942;2023-12-04T00:03:43;4.20;99.90
9223;DHT22;7557;51.698;3.942;2023-12-04T00:06:10;4.10;99.90
9223;DHT22;7557;51.698;3.942;2023-12-04T00:08:38;4.10;99.90
9223;DHT22;7557;51.698;3.942;2023-12-04T00:11:06;4.10;99.90
9223;DHT22;7557;51.698;3.942;2023-12-04T00:13:35;4.10;99.90
9223;DHT22;7557;51.698;3.942;2023-12-04T00:16:02;4.10;99.90
9223;DHT22;7557;51.698;3.942;2023-12-04T00:18:30;4.10;99.90
9223;DHT22;7557;51.698;3.942;2023-12-04T00:20:58;4.10;99.90
9223;DHT22;7557;51.698;3.942;2023-12-04T00:23:25;4.10;99.90
9223;DHT22;7557;51.698;3.942;2023-12-04T00:25:53;4.10;99.90
9223;DHT22;7557;51.698;3.942;2023-12-04T00:28:20;4.10;99.90
9223;DHT22;7557;51.698;3.942;2023-12-04T00:30:49;4.20;99.90
9223;DHT22;7557;51.698;3.942;2023-12-04T00:33:16;4.20;99.90
9223;DHT22;7557;51.698;3.942;2023-12-04T00:35:44;4.20;99.90
9223;DHT22;7557;51.698;3.942;2023-12-04T00:38:11;4.20;99.90
9223;DHT22;7557;51.698;3.942;2023-12-04T00:40:38;4.20;99.90
9223;DHT22;7557;51.698;3.942;2023-12-04T00:43:06;4.20;99.90
9223;DHT22;7557;51.698;3.942;2023-12-04T00:45:34;4.20;99.90
9223;DHT22;7557;51.698;3.942;2023-12-04T00:48:04;4.20;99.90
9223;DHT22;7557;51.698;3.942;2023-12-04T00:50:31;4.20;99.90
9223;DHT22;7557;51.698;3.942;2023-12-04T00:52:59;4.20;99.90
9223;DHT22;7557;51.698;3.942;2023-12-04T00:55:26;4.20;99.90
9223;DHT22;7557;51.698;3.942;2023-12-04T00:57:53;4.30;99.90
9223;DHT22;7557;51.698;3.942;2023-12-04T01:00:21;4.30;99.90
9223;DHT22;7557;51.698;3.942;2023-12-04T01:02:48;4.20;99.90
9223;DHT22;7557;51.698;3.942;2023-12-04T01:05:17;4.30;99.90
9223;DHT22;7557;51.698;3.942;2023-12-04T01:07:44;4.30;99.90
9223;DHT22;7557;51.698;3.942;2023-12-04T01:10:13;4.30;99.90
9223;DHT22;7557;51.698;3.942;2023-12-04T01:12:40;4.30;99.90
9223;DHT22;7557;51.698;3.942;2023-12-04T01:15:08;4.30;99.90
9223;DHT22;7557;51.698;3.942;2023-12-04T01:17:36;4.30;99.90
9223;DHT22;7557;51.698;3.942;2023-12-04T01:20:05;4.30;99.90
9223;DHT22;7557;51.698;3.942;2023-12-04T01:22:34;4.30;99.90
9223;DHT22;7557;51.698;3.942;2023-12-04T01:25:01;4.30;99.90
9223;DHT22;7557;51.698;3.942;2023-12-04T01:27:29;4.30;99.90
9223;DHT22;7557;51.698;3.942;2023-12-04T01:29:56;4.30;99.90
9223;DHT22;7557;51.698;3.942;2023-12-04T01:32:24;4.30;99.90
9223;DHT22;7557;51.698;3.942;2023-12-04T01:34:51;4.30;99.90
9223;DHT22;7557;51.698;3.942;2023-12-04T01:37:19;4.20;99.90
9223;DHT22;7557;51.698;3.942;2023-12-04T01:39:48;4.30;99.90
9223;DHT22;7557;51.698;3.942;2023-12-04T01:42:15;4.20;99.90
9223;DHT22;7557;51.698;3.942;2023-12-04T01:44:43;4.20;99.90
9223;DHT22;7557;51.698;3.942;2023-12-04T01:47:11;4.20;99.90
9223;DHT22;7557;51.698;3.942;2023-12-04T01:49:38;4.20;99.90
9223;DHT22;7557;51.698;3.942;2023-12-04T01:52:06;4.20;99.90
9223;DHT22;7557;51.698;3.942;2023-12-04T01:54:34;4.20;99.90
9223;DHT22;7557;51.698;3.942;2023-12-04T01:57:04;4.20;99.90
9223;DHT22;7557;51.698;3.942;2023-12-04T01:59:31;4.20;99.90
9223;DHT22;7557;51.698;3.942;2023-12-04T02:01:58;4.20;99.90
9223;DHT22;7557;51.698;3.942;2023-12-04T02:04:26;4.20;99.90
9223;DHT22;7557;51.698;3.942;2023-12-04T02:06:53;4.20;99.90
9223;DHT22;7557;51.698;3.942;2023-12-04T02:09:22;4.10;99.90
9223;DHT22;7557;51.698;3.942;2023-12-04T02:11:49;4.10;99.90
9223;DHT22;7557;51.698;3.942;2023-12-04T02:14:20;4.10;99.90
9223;DHT22;7557;51.698;3.942;2023-12-04T02:16:48;4.00;99.90
9223;DHT22;7557;51.698;3.942;2023-12-04T02:19:17;4.00;99.90
9223;DHT22;7557;51.698;3.942;2023-12-04T02:21:45;4.00;99.90
9223;DHT22;7557;51.698;3.942;2023-12-04T02:24:15;4.00;99.90
9223;DHT22;7557;51.698;3.942;2023-12-04T02:26:46;4.00;99.90
9223;DHT22;7557;51.698;3.942;2023-12-04T02:29:19;4.00;99.90
9223;DHT22;7557;51.698;3.942;2023-12-04T02:31:51;4.00;99.90
9223;DHT22;7557;51.698;3.942;2023-12-04T02:34:19;4.00;99.90
9223;DHT22;7557;51.698;3.942;2023-12-04T02:36:47;4.00;99.90
9223;DHT22;7557;51.698;3.942;2023-12-04T02:39:17;4.00;99.90
9223;DHT22;7557;51.698;3.942;2023-12-04T02:41:45;4.10;99.90
9223;DHT22;7557;51.698;3.942;2023-12-04T02:44:13;4.10;99.90
9223;DHT22;7557;51.698;3.942;2023-12-04T02:46:40;4.10;99.90
9223;DHT22;7557;51.698;3.942;2023-12-04T02:49:08;4.10;99.90
9223;DHT22;7557;51.698;3.942;2023-12-04T02:51:35;4.10;99.90
9223;DHT22;7557;51.698;3.942;2023-12-04T02:54:02;4.20;99.90
9223;DHT22;7557;51.698;3.942;2023-12-04T02:56:32;4.20;99.90
9223;DHT22;7557;51.698;3.942;2023-12-04T02:58:59;4.20;99.90
9223;DHT22;7557;51.698;3.942;2023-12-04T03:01:27;4.30;99.90
9223;DHT22;7557;51.698;3.942;2023-12-04T03:03:54;4.30;99.90
9223;DHT22;7557;51.698;3.942;2023-12-04T03:06:23;4.20;99.90
9223;DHT22;7557;51.698;3.942;2023-12-04T03:08:51;4.20;99.90
9223;DHT22;7557;51.698;3.942;2023-12-04T03:11:19;4.20;99.90
9223;DHT22;7557;51.698;3.942;2023-12-04T03:13:48;4.20;99.90
9223;DHT22;7557;51.698;3.942;2023-12-04T03:16:15;4.20;99.90
9223;DHT22;7557;51.698;3.942;2023-12-04T03:18:43;4.20;99.90
9223;DHT22;7557;51.698;3.942;2023-12-04T03:21:11;4.20;99.90
9223;DHT22;7557;51.698;3.942;2023-12-04T03:23:38;4.20;99.90
9223;DHT22;7557;51.698;3.942;2023-12-04T03:26:09;4.10;99.90
9223;DHT22;7557;51.698;3.942;2023-12-04T03:28:36;4.10;99.90
9223;DHT22;7557;51.698;3.942;2023-12-04T03:31:07;4.10;99.90
9223;DHT22;7557;51.698;3.942;2023-12-04T03:33:35;4.10;99.90
9223;DHT22;7557;51.698;3.942;2023-12-04T03:36:02;4.20;99.90
9223;DHT22;7557;51.698;3.942;2023-12-04T03:38:30;4.10;99.90
9223;DHT22;7557;51.698;3.942;2023-12-04T03:40:57;4.10;99.90
9223;DHT22;7557;51.698;3.942;2023-12-04T03:43:25;4.10;99.90
9223;DHT22;7557;51.698;3.942;2023-12-04T03:45:52;4.20;99.90
9223;DHT22;7557;51.698;3.942;2023-12-04T03:48:21;4.20;99.90
9223;DHT22;7557;51.698;3.942;2023-12-04T03:50:48;4.20;99.90
9223;DHT22;7557;51.698;3.942;2023-12-04T03:53:16;4.20;99.90
9223;DHT22;7557;51.698;3.942;2023-12-04T03:55:43;4.20;99.90
9223;DHT22;7557;51.698;3.942;2023-12-04T03:58:10;4.20;99.90
9223;DHT22;7557;51.698;3.942;2023-12-04T04:00:38;4.20;99.90
9223;DHT22;7557;51.698;3.942;2023-12-04T04:03:07;4.20;99.90
9223;DHT22;7557;51.698;3.942;2023-12-04T04:05:36;4.20;99.90
9223;DHT22;7557;51.698;3.942;2023-12-04T04:08:04;4.30;99.90
9223;DHT22;7557;51.698;3.942;2023-12-04T04:10:33;4.30;99.90
9223;DHT22;7557;51.698;3.942;2023-12-04T04:13:01;4.40;99.90
9223;DHT22;7557;51.698;3.942;2023-12-04T04:15:28;4.40;99.90
9223;DHT22;7557;51.698;3.942;2023-12-04T04:17:55;4.40;99.90
9223;DHT22;7557;51.698;3.942;2023-12-04T04:20:23;4.40;99.90
9223;DHT22;7557;51.698;3.942;2023-12-04T04:22:52;4.40;99.90
9223;DHT22;7557;51.698;3.942;2023-12-04T04:25:20;4.40;99.90
9223;DHT22;7557;51.698;3.942;2023-12-04T04:27:50;4.50;99.90
9223;DHT22;7557;51.698;3.942;2023-12-04T04:30:17;4.50;99.90
9223;DHT22;7557;51.698;3.942;2023-12-04T04:32:45;4.50;99.90
9223;DHT22;7557;51.698;3.942;2023-12-04T04:35:13;4.50;99.90
9223;DHT22;7557;51.698;3.942;2023-12-04T04:37:40;4.60;99.90
9223;DHT22;7557;51.698;3.942;2023-12-04T04:40:10;4.60;99.90
9223;DHT22;7557;51.698;3.942;2023-12-04T04:42:37;4.60;99.90
9223;DHT22;7557;51.698;3.942;2023-12-04T04:45:05;4.60;99.90
9223;DHT22;7557;51.698;3.942;2023-12-04T04:47:32;4.60;99.90
9223;DHT22;7557;51.698;3.942;2023-12-04T04:50:00;4.70;99.90
9223;DHT22;7557;51.698;3.942;2023-12-04T04:52:27;4.70;99.90
9223;DHT22;7557;51.698;3.942;2023-12-04T04:54:54;4.70;99.90
9223;DHT22;7557;51.698;3.942;2023-12-04T04:57:26;4.70;99.90
9223;DHT22;7557;51.698;3.942;2023-12-04T04:59:53;4.70;99.90
9223;DHT22;7557;51.698;3.942;2023-12-04T05:02:20;4.70;99.90
9223;DHT22;7557;51.698;3.942;2023-12-04T05:04:48;4.90;99.90
9223;DHT22;7557;51.698;3.942;2023-12-04T05:07:15;4.90;99.90
9223;DHT22;7557;51.698;3.942;2023-12-04T05:09:43;4.80;99.90
9223;DHT22;7557;51.698;3.942;2023-12-04T05:12:11;4.70;99.90
9223;DHT22;7557;51.698;3.942;2023-12-04T05:14:40;4.60;99.90
9223;DHT22;7557;51.698;3.942;2023-12-04T05:17:08;4.50;99.90
9223;DHT22;7557;51.698;3.942;2023-12-04T05:19:35;4.50;99.90
9223;DHT22;7557;51.698;3.942;2023-12-04T05:22:03;4.40;99.90
9223;DHT22;7557;51.698;3.942;2023-12-04T05:24:30;4.30;99.90
9223;DHT22;7557;51.698;3.942;2023-12-04T05:26:58;4.30;99.90
9223;DHT22;7557;51.698;3.942;2023-12-04T05:29:25;4.30;99.90
9223;DHT22;7557;51.698;3.942;2023-12-04T05:31:54;4.30;99.90
9223;DHT22;7557;51.698;3.942;2023-12-04T05:34:22;4.30;99.90
9223;DHT22;7557;51.698;3.942;2023-12-04T05:36:50;4.30;99.90
9223;DHT22;7557;51.698;3.942;2023-12-04T05:39:18;4.30;99.90
9223;DHT22;7557;51.698;3.942;2023-12-04T05:41:45;4.20;99.90
9223;DHT22;7557;51.698;3.942;2023-12-04T05:44:13;4.20;99.90
9223;DHT22;7557;51.698;3.942;2023-12-04T05:46:41;4.20;99.90
9223;DHT22;7557;51.698;3.942;2023-12-04T05:49:10;4.30;99.90
9223;DHT22;7557;51.698;3.942;2023-12-04T05:51:39;4.40;99.90
9223;DHT22;7557;51.698;3.942;2023-12-04T05:54:07;4.50;99.90
9223;DHT22;7557;51.698;3.942;2023-12-04T05:56:34;4.50;99.90
9223;DHT22;7557;51.698;3.942;2023-12-04T05:59:02;4.50;99.90
9223;DHT22;7557;51.698;3.942;2023-12-04T06:01:29;4.50;99.90
9223;DHT22;7557;51.698;3.942;2023-12-04T06:03:57;4.50;99.90
9223;DHT22;7557;51.698;3.942;2023-12-04T06:06:27;4.60;99.90
9223;DHT22;7557;51.698;3.942;2023-12-04T06:08:54;4.50;99.90
9223;DHT22;7557;51.698;3.942;2023-12-04T06:11:24;4.50;99.90
9223;DHT22;7557;51.698;3.942;2023-12-04T06:13:52;4.50;99.90
9223;DHT22;7557;51.698;3.942;2023-12-04T06:16:19;4.50;99.90
9223;DHT22;7557;51.698;3.942;2023-12-04T06:18:47;4.50;99.90
9223;DHT22;7557;51.698;3.942;2023-12-04T06:21:14;4.50;99.90
9223;DHT22;7557;51.698;3.942;2023-12-04T06:23:44;4.50;99.90
9223;DHT22;7557;51.698;3.942;2023-12-04T06:26:12;4.40;99.90
9223;DHT22;7557;51.698;3.942;2023-12-04T06:28:41;4.40;99.90
9223;DHT22;7557;51.698;3.942;2023-12-04T06:31:12;4.40;99.90
9223;DHT22;7557;51.698;3.942;2023-12-04T06:33:41;4.40;99.90
9223;DHT22;7557;51.698;3.942;2023-12-04T06:36:09;4.40;99.90
9223;DHT22;7557;51.698;3.942;2023-12-04T06:38:40;4.40;99.90
9223;DHT22;7557;51.698;3.942;2023-12-04T06:41:11;4.50;99.90
9223;DHT22;7557;51.698;3.942;2023-12-04T06:43:39;4.40;99.90
9223;DHT22;7557;51.698;3.942;2023-12-04T06:46:07;4.50;99.90
9223;DHT22;7557;51.698;3.942;2023-12-04T06:48:35;4.50;99.90
9223;DHT22;7557;51.698;3.942;2023-12-04T06:51:04;4.60;99.90
9223;DHT22;7557;51.698;3.942;2023-12-04T06:53:32;4.60;99.90
9223;DHT22;7557;51.698;3.942;2023-12-04T06:55:59;4.60;99.90
9223;DHT22;7557;51.698;3.942;2023-12-04T06:58:28;4.60;99.90
9223;DHT22;7557;51.698;3.942;2023-12-04T07:00:56;4.60;99.90
9223;DHT22;7557;51.698;3.942;2023-12-04T07:03:23;4.60;99.90
9223;DHT22;7557;51.698;3.942;2023-12-04T07:05:51;4.70;99.90
9223;DHT22;7557;51.698;3.942;2023-12-04T07:08:19;4.70;99.90
9223;DHT22;7557;51.698;3.942;2023-12-04T07:10:46;4.70;99.90
9223;DHT22;7557;51.698;3.942;2023-12-04T07:13:15;4.60;99.90
9223;DHT22;7557;51.698;3.942;2023-12-04T07:15:44;4.60;99.90
9223;DHT22;7557;51.698;3.942;2023-12-04T07:18:11;4.50;99.90
9223;DHT22;7557;51.698;3.942;2023-12-04T07:20:39;4.50;99.90
9223;DHT22;7557;51.698;3.942;2023-12-04T07:23:06;4.50;99.90
9223;DHT22;7557;51.698;3.942;2023-12-04T07:25:34;4.50;99.90
9223;DHT22;7557;51.698;3.942;2023-12-04T07:28:02;4.50;99.90
9223;DHT22;7557;51.698;3.942;2023-12-04T07:30:29;4.50;99.90
9223;DHT22;7557;51.698;3.942;2023-12-04T07:32:58;4.50;99.90
9223;DHT22;7557;51.698;3.942;2023-12-04T07:35:26;4.50;99.90
9223;DHT22;7557;51.698;3.942;2023-12-04T07:37:54;4.50;99.90
9223;DHT22;7557;51.698;3.942;2023-12-04T07:40:22;4.40;99.90
9223;DHT22;7557;51.698;3.942;2023-12-04T07:42:49;4.40;99.90
9223;DHT22;7557;51.698;3.942;2023-12-04T07:45:16;4.30;99.90
9223;DHT22;7557;51.698;3.942;2023-12-04T07:47:44;4.30;99.90
9223;DHT22;7557;51.698;3.942;2023-12-04T07:50:13;4.30;99.90
9223;DHT22;7557;51.698;3.942;2023-12-04T07:52:41;4.40;99.90
9223;DHT22;7557;51.698;3.942;2023-12-04T07:55:10;4.30;99.90
9223;DHT22;7557;51.698;3.942;2023-12-04T07:57:38;4.30;99.90
9223;DHT22;7557;51.698;3.942;2023-12-04T08:00:06;4.30;99.90
9223;DHT22;7557;51.698;3.942;2023-12-04T08:02:34;4.30;99.90
9223;DHT22;7557;51.698;3.942;2023-12-04T08:05:01;4.30;99.90
9223;DHT22;7557;51.698;3.942;2023-12-04T08:07:31;4.30;99.90
9223;DHT22;7557;51.698;3.942;2023-12-04T08:09:59;4.40;99.90
9223;DHT22;7557;51.698;3.942;2023-12-04T08:12:27;4.40;99.90
9223;DHT22;7557;51.698;3.942;2023-12-04T08:14:55;4.40;99.90
9223;DHT22;7557;51.698;3.942;2023-12-04T08:17:23;4.40;99.90
9223;DHT22;7557;51.698;3.942;2023-12-04T08:19:51;4.40;99.90
9223;DHT22;7557;51.698;3.942;2023-12-04T08:22:18;4.40;99.90
9223;DHT22;7557;51.698;3.942;2023-12-04T08:24:47;4.40;99.90
9223;DHT22;7557;51.698;3.942;2023-12-04T08:27:15;4.40;99.90
9223;DHT22;7557;51.698;3.942;2023-12-04T08:29:42;4.40;99.90
9223;DHT22;7557;51.698;3.942;2023-12-04T08:32:09;4.40;99.90
9223;DHT22;7557;51.698;3.942;2023-12-04T08:34:37;4.50;99.90
9223;DHT22;7557;51.698;3.942;2023-12-04T08:37:05;4.50;99.90
9223;DHT22;7557;51.698;3.942;2023-12-04T08:39:32;4.50;99.90
9223;DHT22;7557;51.698;3.942;2023-12-04T08:42:01;4.50;99.90
9223;DHT22;7557;51.698;3.942;2023-12-04T08:44:30;4.50;99.90
9223;DHT22;7557;51.698;3.942;2023-12-04T08:46:57;4.50;99.90
9223;DHT22;7557;51.698;3.942;2023-12-04T08:49:25;4.60;99.90
9223;DHT22;7557;51.698;3.942;2023-12-04T08:51:53;4.60;99.90
9223;DHT22;7557;51.698;3.942;2023-12-04T08:54:21;4.50;99.90
9223;DHT22;7557;51.698;3.942;2023-12-04T08:56:48;4.60;99.90
9223;DHT22;7557;51.698;3.942;2023-12-04T08:59:17;4.60;99.90
9223;DHT22;7557;51.698;3.942;2023-12-04T09:01:44;4.50;99.90
9223;DHT22;7557;51.698;3.942;2023-12-04T09:04:12;4.60;99.90
9223;DHT22;7557;51.698;3.942;2023-12-04T09:06:41;4.60;99.90
9223;DHT22;7557;51.698;3.942;2023-12-04T09:09:09;4.60;99.90
9223;DHT22;7557;51.698;3.942;2023-12-04T09:11:41;4.60;99.90
9223;DHT22;7557;51.698;3.942;2023-12-04T09:14:09;4.60;99.90
9223;DHT22;7557;51.698;3.942;2023-12-04T09:16:37;4.60;99.90
9223;DHT22;7557;51.698;3.942;2023-12-04T09:19:05;4.60;99.90
9223;DHT22;7557;51.698;3.942;2023-12-04T09:21:32;4.60;99.90
9223;DHT22;7557;51.698;3.942;2023-12-04T09:24:00;4.60;99.90
9223;DHT22;7557;51.698;3.942;2023-12-04T09:26:28;4.60;99.90
9223;DHT22;7557;51.698;3.942;2023-12-04T09:28:55;4.60;99.90
9223;DHT22;7557;51.698;3.942;2023-12-04T09:31:24;4.60;99.90
9223;DHT22;7557;51.698;3.942;2023-12-04T09:33:53;4.60;99.90
9223;DHT22;7557;51.698;3.942;2023-12-04T09:36:20;4.60;99.90
9223;DHT22;7557;51.698;3.942;2023-12-04T09:38:48;4.60;99.90
9223;DHT22;7557;51.698;3.942;2023-12-04T09:41:16;4.60;99.90
9223;DHT22;7557;51.698;3.942;2023-12-04T09:43:44;4.60;99.90
9223;DHT22;7557;51.698;3.942;2023-12-04T09:46:12;4.60;99.90
9223;DHT22;7557;51.698;3.942;2023-12-04T09:48:43;4.70;99.90
9223;DHT22;7557;51.698;3.942;2023-12-04T09:51:14;4.70;99.90
9223;DHT22;7557;51.698;3.942;2023-12-04T09:53:42;4.70;99.90
9223;DHT22;7557;51.698;3.942;2023-12-04T09:56:10;4.70;99.90
9223;DHT22;7557;51.698;3.942;2023-12-04T09:58:40;4.70;99.90
9223;DHT22;7557;51.698;3.942;2023-12-04T10:01:08;4.70;99.90
9223;DHT22;7557;51.698;3.942;2023-12-04T10:03:37;4.80;99.90
9223;DHT22;7557;51.698;3.942;2023-12-04T10:06:06;4.80;99.90
9223;DHT22;7557;51.698;3.942;2023-12-04T10:08:36;4.80;99.90
9223;DHT22;7557;51.698;3.942;2023-12-04T10:11:04;4.80;99.90
9223;DHT22;7557;51.698;3.942;2023-12-04T10:13:32;4.80;99.90
9223;DHT22;7557;51.698;3.942;2023-12-04T10:16:00;4.80;99.90
9223;DHT22;7557;51.698;3.942;2023-12-04T10:18:29;4.80;99.90
9223;DHT22;7557;51.698;3.942;2023-12-04T10:20:58;4.80;99.90
9223;DHT22;7557;51.698;3.942;2023-12-04T10:23:38;4.80;99.90
9223;DHT22;7557;51.698;3.942;2023-12-04T10:26:07;4.80;99.90
9223;DHT22;7557;51.698;3.942;2023-12-04T10:28:35;4.80;99.90
9223;DHT22;7557;51.698;3.942;2023-12-04T10:31:03;4.80;99.90
9223;DHT22;7557;51.698;3.942;2023-12-04T10:33:32;4.80;99.90
9223;DHT22;7557;51.698;3.942;2023-12-04T10:36:01;4.80;99.90
9223;DHT22;7557;51.698;3.942;2023-12-04T10:38:28;4.80;99.90
9223;DHT22;7557;51.698;3.942;2023-12-04T10:41:12;4.80;99.90
9223;DHT22;7557;51.698;3.942;2023-12-04T10:43:46;4.90;99.90
9223;DHT22;7557;51.698;3.942;2023-12-04T10:46:15;4.90;99.90
9223;DHT22;7557;51.698;3.942;2023-12-04T10:48:45;4.90;99.90
9223;DHT22;7557;51.698;3.942;2023-12-04T10:51:15;4.90;99.90
9223;DHT22;7557;51.698;3.942;2023-12-04T10:53:44;4.90;99.90
9223;DHT22;7557;51.698;3.942;2023-12-04T10:56:19;4.90;99.90
9223;DHT22;7557;51.698;3.942;2023-12-04T10:58:50;5.00;99.90
9223;DHT22;7557;51.698;3.942;2023-12-04T11:01:20;5.00;99.90
9223;DHT22;7557;51.698;3.942;2023-12-04T11:03:53;5.00;99.90
9223;DHT22;7557;51.698;3.942;2023-12-04T11:06:21;5.00;99.90
9223;DHT22;7557;51.698;3.942;2023-12-04T11:08:49;5.10;99.90
9223;DHT22;7557;51.698;3.942;2023-12-04T11:11:25;5.10;99.90
9223;DHT22;7557;51.698;3.942;2023-12-04T11:13:56;5.10;99.90
9223;DHT22;7557;51.698;3.942;2023-12-04T11:16:30;5.10;99.90
9223;DHT22;7557;51.698;3.942;2023-12-04T11:19:02;5.10;99.90
9223;DHT22;7557;51.698;3.942;2023-12-04T11:21:32;5.20;99.90
9223;DHT22;7557;51.698;3.942;2023-12-04T11:24:02;5.20;99.90
9223;DHT22;7557;51.698;3.942;2023-12-04T11:26:32;5.20;99.90
9223;DHT22;7557;51.698;3.942;2023-12-04T11:29:01;5.20;99.90
9223;DHT22;7557;51.698;3.942;2023-12-04T11:31:29;5.20;99.90
9223;DHT22;7557;51.698;3.942;2023-12-04T11:34:01;5.10;99.90
9223;DHT22;7557;51.698;3.942;2023-12-04T11:36:29;5.10;99.90
9223;DHT22;7557;51.698;3.942;2023-12-04T11:38:56;5.10;99.90
9223;DHT22;7557;51.698;3.942;2023-12-04T11:41:25;5.10;99.90
9223;DHT22;7557;51.698;3.942;2023-12-04T11:43:55;5.10;99.90
9223;DHT22;7557;51.698;3.942;2023-12-04T11:46:24;5.10;99.90
9223;DHT22;7557;51.698;3.942;2023-12-04T11:48:54;5.10;99.90
9223;DHT22;7557;51.698;3.942;2023-12-04T11:51:47;5.20;99.90
9223;DHT22;7557;51.698;3.942;2023-12-04T11:54:19;5.20;99.90
9223;DHT22;7557;51.698;3.942;2023-12-04T11:57:00;5.20;99.90
9223;DHT22;7557;51.698;3.942;2023-12-04T11:59:36;5.20;99.90
9223;DHT22;7557;51.698;3.942;2023-12-04T12:02:07;5.20;99.90
9223;DHT22;7557;51.698;3.942;2023-12-04T12:04:35;5.20;99.90
9223;DHT22;7557;51.698;3.942;2023-12-04T12:07:05;5.20;99.90
9223;DHT22;7557;51.698;3.942;2023-12-04T12:09:33;5.20;99.90
9223;DHT22;7557;51.698;3.942;2023-12-04T12:12:01;5.20;99.90
9223;DHT22;7557;51.698;3.942;2023-12-04T12:14:30;5.30;99.90
9223;DHT22;7557;51.698;3.942;2023-12-04T12:17:00;5.30;99.90
9223;DHT22;7557;51.698;3.942;2023-12-04T12:19:27;5.20;99.90
9223;DHT22;7557;51.698;3.942;2023-12-04T12:21:55;5.20;99.90
9223;DHT22;7557;51.698;3.942;2023-12-04T12:24:23;5.20;99.90
9223;DHT22;7557;51.698;3.942;2023-12-04T12:26:52;5.20;99.90
9223;DHT22;7557;51.698;3.942;2023-12-04T12:29:21;5.20;99.90
9223;DHT22;7557;51.698;3.942;2023-12-04T12:31:50;5.20;99.90
9223;DHT22;7557;51.698;3.942;2023-12-04T12:34:18;5.20;99.90
9223;DHT22;7557;51.698;3.942;2023-12-04T12:36:45;5.20;99.90
9223;DHT22;7557;51.698;3.942;2023-12-04T12:39:13;5.20;99.90
9223;DHT22;7557;51.698;3.942;2023-12-04T12:41:47;5.20;99.90
9223;DHT22;7557;51.698;3.942;2023-12-04T12:44:15;5.20;99.90
9223;DHT22;7557;51.698;3.942;2023-12-04T12:46:48;5.20;99.90
9223;DHT22;7557;51.698;3.942;2023-12-04T12:49:17;5.20;99.90
9223;DHT22;7557;51.698;3.942;2023-12-04T12:51:46;5.20;99.90
9223;DHT22;7557;51.698;3.942;2023-12-04T12:54:14;5.30;99.90
9223;DHT22;7557;51.698;3.942;2023-12-04T12:56:44;5.30;99.90
9223;DHT22;7557;51.698;3.942;2023-12-04T12:59:12;5.30;99.90
9223;DHT22;7557;51.698;3.942;2023-12-04T13:01:39;5.30;99.90
9223;DHT22;7557;51.698;3.942;2023-12-04T13:04:08;5.30;99.90
9223;DHT22;7557;51.698;3.942;2023-12-04T13:06:36;5.30;99.90
9223;DHT22;7557;51.698;3.942;2023-12-04T13:09:04;5.30;99.90
9223;DHT22;7557;51.698;3.942;2023-12-04T13:11:32;5.20;99.90
9223;DHT22;7557;51.698;3.942;2023-12-04T13:14:00;5.30;99.90
9223;DHT22;7557;51.698;3.942;2023-12-04T13:16:28;5.30;99.90
9223;DHT22;7557;51.698;3.942;2023-12-04T13:18:56;5.20;99.90
9223;DHT22;7557;51.698;3.942;2023-12-04T13:21:27;5.20;99.90
9223;DHT22;7557;51.698;3.942;2023-12-04T13:23:56;5.20;99.90
9223;DHT22;7557;51.698;3.942;2023-12-04T13:26:24;5.20;99.90
9223;DHT22;7557;51.698;3.942;2023-12-04T13:28:51;5.20;99.90
9223;DHT22;7557;51.698;3.942;2023-12-04T13:31:19;5.20;99.90
9223;DHT22;7557;51.698;3.942;2023-12-04T13:33:47;5.20;99.90
9223;DHT22;7557;51.698;3.942;2023-12-04T13:36:17;5.10;99.90
9223;DHT22;7557;51.698;3.942;2023-12-04T13:38:46;5.10;99.90
9223;DHT22;7557;51.698;3.942;2023-12-04T13:41:19;5.10;99.90
9223;DHT22;7557;51.698;3.942;2023-12-04T13:44:00;5.10;99.90
9223;DHT22;7557;51.698;3.942;2023-12-04T13:46:30;5.10;99.90
9223;DHT22;7557;51.698;3.942;2023-12-04T13:48:57;5.20;99.90
9223;DHT22;7557;51.698;3.942;2023-12-04T13:51:25;5.20;99.90
9223;DHT22;7557;51.698;3.942;2023-12-04T13:53:58;5.20;99.90
9223;DHT22;7557;51.698;3.942;2023-12-04T13:56:37;5.20;99.90
9223;DHT22;7557;51.698;3.942;2023-12-04T13:59:31;5.20;99.90
9223;DHT22;7557;51.698;3.942;2023-12-04T14:02:00;5.20;99.90
9223;DHT22;7557;51.698;3.942;2023-12-04T14:04:30;5.20;99.90
9223;DHT22;7557;51.698;3.942;2023-12-04T14:07:00;5.20;99.90
9223;DHT22;7557;51.698;3.942;2023-12-04T14:09:34;5.20;99.90
9223;DHT22;7557;51.698;3.942;2023-12-04T14:12:05;5.20;99.90
9223;DHT22;7557;51.698;3.942;2023-12-04T14:14:37;5.20;99.90
9223;DHT22;7557;51.698;3.942;2023-12-04T14:17:07;5.20;99.90
9223;DHT22;7557;51.698;3.942;2023-12-04T14:19:37;5.20;99.90
9223;DHT22;7557;51.698;3.942;2023-12-04T14:22:08;5.20;99.90
9223;DHT22;7557;51.698;3.942;2023-12-04T14:24:41;5.20;99.90
9223;DHT22;7557;51.698;3.942;2023-12-04T14:27:09;5.20;99.90
9223;DHT22;7557;51.698;3.942;2023-12-04T14:29:38;5.20;99.90
9223;DHT22;7557;51.698;3.942;2023-12-04T14:32:08;5.10;99.90
9223;DHT22;7557;51.698;3.942;2023-12-04T14:34:41;5.10;99.90
9223;DHT22;7557;51.698;3.942;2023-12-04T14:37:09;5.20;99.90
9223;DHT22;7557;51.698;3.942;2023-12-04T14:39:40;5.10;99.90
9223;DHT22;7557;51.698;3.942;2023-12-04T14:42:10;5.10;99.90
9223;DHT22;7557;51.698;3.942;2023-12-04T14:44:44;5.10;99.90
9223;DHT22;7557;51.698;3.942;2023-12-04T14:47:13;5.10;99.90
9223;DHT22;7557;51.698;3.942;2023-12-04T14:49:44;5.10;99.90
9223;DHT22;7557;51.698;3.942;2023-12-04T14:52:18;5.10;99.90
9223;DHT22;7557;51.698;3.942;2023-12-04T14:54:50;5.10;99.90
9223;DHT22;7557;51.698;3.942;2023-12-04T14:57:46;5.10;99.90
9223;DHT22;7557;51.698;3.942;2023-12-04T15:00:40;5.20;99.90
9223;DHT22;7557;51.698;3.942;2023-12-04T15:03:39;5.20;99.90
9223;DHT22;7557;51.698;3.942;2023-12-04T15:06:46;5.10;99.90
9223;DHT22;7557;51.698;3.942;2023-12-04T15:09:48;5.20;99.90
9223;DHT22;7557;51.698;3.942;2023-12-04T15:12:51;5.10;99.90
9223;DHT22;7557;51.698;3.942;2023-12-04T15:15:54;5.10;99.90
9223;DHT22;7557;51.698;3.942;2023-12-04T15:18:45;5.10;99.90
9223;DHT22;7557;51.698;3.942;2023-12-04T15:21:37;5.10;99.90
9223;DHT22;7557;51.698;3.942;2023-12-04T15:24:06;5.10;99.90
9223;DHT22;7557;51.698;3.942;2023-12-04T15:26:34;5.10;99.90
9223;DHT22;7557;51.698;3.942;2023-12-04T15:29:04;5.10;99.90
9223;DHT22;7557;51.698;3.942;2023-12-04T15:31:32;5.10;99.90
9223;DHT22;7557;51.698;3.942;2023-12-04T15:33:58;5.10;99.90
9223;DHT22;7557;51.698;3.942;2023-12-04T15:36:26;5.10;99.90
9223;DHT22;7557;51.698;3.942;2023-12-04T15:38:52;5.10;99.90
9223;DHT22;7557;51.698;3.942;2023-12-04T15:41:19;5.10;99.90
9223;DHT22;7557;51.698;3.942;2023-12-04T15:43:46;5.10;99.90
9223;DHT22;7557;51.698;3.942;2023-12-04T15:46:16;5.10;99.90
9223;DHT22;7557;51.698;3.942;2023-12-04T15:48:44;5.10;99.90
9223;DHT22;7557;51.698;3.942;2023-12-04T15:51:11;5.10;99.90
9223;DHT22;7557;51.698;3.942;2023-12-04T15:53:38;5.10;99.90
9223;DHT22;7557;51.698;3.942;2023-12-04T15:56:06;5.10;99.90
9223;DHT22;7557;51.698;3.942;2023-12-04T15:58:33;5.10;99.90
9223;DHT22;7557;51.698;3.942;2023-12-04T16:01:01;5.00;99.90
9223;DHT22;7557;51.698;3.942;2023-12-04T16:03:31;5.10;99.90
9223;DHT22;7557;51.698;3.942;2023-12-04T16:06:00;5.00;99.90
9223;DHT22;7557;51.698;3.942;2023-12-04T16:08:27;5.10;99.90
9223;DHT22;7557;51.698;3.942;2023-12-04T16:10:55;5.10;99.90
9223;DHT22;7557;51.698;3.942;2023-12-04T16:13:22;5.10;99.90
9223;DHT22;7557;51.698;3.942;2023-12-04T16:15:50;5.10;99.90
9223;DHT22;7557;51.698;3.942;2023-12-04T16:18:17;5.00;99.90
9223;DHT22;7557;51.698;3.942;2023-12-04T16:20:46;5.00;99.90
9223;DHT22;7557;51.698;3.942;2023-12-04T16:23:14;5.00;99.90
9223;DHT22;7557;51.698;3.942;2023-12-04T16:25:42;5.00;99.90
9223;DHT22;7557;51.698;3.942;2023-12-04T16:28:11;5.10;99.90
9223;DHT22;7557;51.698;3.942;2023-12-04T16:30:38;5.10;99.90